createdAt,value
2023-03-31T00:01:22.759Z,-288.00
2023-03-31T00:07:10.176Z,-288.00
2023-03-31T00:13:03.673Z,-252.00
2023-03-31T00:18:46.422Z,-252.00
2023-03-31T00:24:33.962Z,-288.00
2023-03-31T00:30:16.462Z,-288.00
2023-03-31T00:36:05.022Z,-252.00
2023-03-31T00:41:52.521Z,-252.00
2023-03-31T00:47:35.389Z,-252.00
2023-03-31T00:58:44.753Z,-288.00
2023-03-31T01:04:03.671Z,-324.00
2023-03-31T01:09:22.639Z,-288.00
2023-03-31T01:15:09.824Z,-252.00
2023-03-31T01:20:52.250Z,-252.00
2023-03-31T01:26:08.667Z,-288.00
2023-03-31T01:31:48.394Z,-252.00
2023-03-31T01:37:01.669Z,-288.00
2023-03-31T01:42:49.329Z,-252.00
2023-03-31T01:48:06.105Z,-288.00
2023-03-31T01:53:19.840Z,-288.00
2023-03-31T01:58:27.224Z,-288.00
2023-03-31T02:03:34.916Z,-288.00
2023-03-31T02:08:42.490Z,-288.00
2023-03-31T02:13:50.036Z,-288.00
2023-03-31T02:18:59.482Z,-288.00
2023-03-31T02:24:07.200Z,-288.00
2023-03-31T02:29:14.700Z,-288.00
2023-03-31T02:34:22.422Z,-252.00
2023-03-31T02:39:30.012Z,-324.00
2023-03-31T02:44:37.759Z,-288.00
2023-03-31T02:49:56.638Z,-288.00
2023-03-31T02:55:08.952Z,-288.00
2023-03-31T03:00:16.567Z,-288.00
2023-03-31T03:06:03.849Z,-252.00
2023-03-31T03:11:44.428Z,-252.00
2023-03-31T03:17:26.952Z,-252.00
2023-03-31T03:23:09.645Z,-252.00
2023-03-31T03:28:52.029Z,-252.00
2023-03-31T03:33:59.551Z,-288.00
2023-03-31T03:39:42.394Z,-252.00
2023-03-31T03:45:29.655Z,-252.00
2023-03-31T03:51:12.976Z,-252.00
2023-03-31T03:56:20.601Z,-288.00
2023-03-31T04:02:07.890Z,-252.00
2023-03-31T04:07:50.169Z,-252.00
2023-03-31T04:13:35.644Z,-252.00
2023-03-31T04:19:18.128Z,-252.00
2023-03-31T04:25:00.523Z,-252.00
2023-03-31T04:35:55.915Z,-252.00
2023-03-31T04:41:43.110Z,-252.00
2023-03-31T04:47:40.699Z,-252.00
2023-03-31T04:53:23.157Z,-252.00
2023-03-31T05:04:11.724Z,-324.00
2023-03-31T05:09:28.704Z,-288.00
2023-03-31T05:15:15.930Z,-252.00
2023-03-31T05:20:26.614Z,-288.00
2023-03-31T05:26:06.859Z,-252.00
2023-03-31T05:31:21.257Z,-288.00
2023-03-31T05:36:53.259Z,-288.00
2023-03-31T05:41:56.041Z,-288.00
2023-03-31T05:47:08.123Z,-252.00
2023-03-31T05:52:15.615Z,-252.00
2023-03-31T05:57:23.094Z,-252.00
2023-03-31T06:02:30.512Z,-288.00
2023-03-31T06:07:37.800Z,-288.00
2023-03-31T06:12:45.430Z,-252.00
2023-03-31T06:17:52.921Z,-288.00
2023-03-31T06:23:04.983Z,-252.00
2023-03-31T06:28:12.410Z,-252.00
2023-03-31T06:33:19.571Z,-252.00
2023-03-31T06:38:26.850Z,-252.00
2023-03-31T06:43:34.135Z,-288.00
2023-03-31T06:48:41.437Z,-252.00
2023-03-31T06:53:48.580Z,-216.00
2023-03-31T06:58:55.979Z,-252.00
2023-03-31T07:04:03.169Z,-252.00
2023-03-31T07:09:10.597Z,-216.00
2023-03-31T07:14:18.361Z,-180.00
2023-03-31T07:19:25.503Z,-144.00
2023-03-31T07:24:32.766Z,-144.00
2023-03-31T07:29:39.979Z,16488.00
2023-03-31T07:34:47.143Z,18396.00
2023-03-31T07:39:54.338Z,13248.00
2023-03-31T07:45:01.543Z,5328.00
2023-03-31T07:50:08.697Z,6048.00
2023-03-31T07:55:15.894Z,6444.00
2023-03-31T08:00:23.087Z,6120.00
2023-03-31T08:05:30.352Z,7164.00
2023-03-31T08:10:37.541Z,6732.00
2023-03-31T08:15:44.851Z,7632.00
2023-03-31T08:20:52.010Z,9612.00
2023-03-31T08:25:59.217Z,13104.00
2023-03-31T08:31:06.407Z,22284.00
2023-03-31T08:36:13.700Z,22176.00
2023-03-31T08:41:20.850Z,21816.00
2023-03-31T08:46:28.242Z,22428.00
2023-03-31T08:51:35.418Z,21924.00
2023-03-31T08:56:42.754Z,20304.00
2023-03-31T09:01:56.236Z,17532.00
2023-03-31T09:06:56.983Z,9180.00
2023-03-31T09:12:04.162Z,17316.00
2023-03-31T09:17:14.517Z,15192.00
2023-03-31T09:22:21.666Z,18612.00
2023-03-31T09:27:28.972Z,20772.00
2023-03-31T09:32:36.448Z,17748.00
2023-03-31T09:37:43.616Z,20412.00
2023-03-31T09:42:50.889Z,22392.00
2023-03-31T09:47:58.255Z,19008.00
2023-03-31T09:53:05.374Z,20232.00
2023-03-31T09:58:12.679Z,24552.00
2023-03-31T10:03:19.897Z,19296.00
2023-03-31T10:08:27.157Z,21420.00
2023-03-31T10:13:34.415Z,17208.00
2023-03-31T10:18:41.635Z,25200.00
2023-03-31T10:23:48.784Z,16452.00
2023-03-31T10:28:56.057Z,12492.00
2023-03-31T10:34:03.362Z,15732.00
2023-03-31T10:39:10.539Z,15876.00
2023-03-31T10:44:17.706Z,21492.00
2023-03-31T10:49:24.924Z,23940.00
2023-03-31T10:54:32.167Z,23040.00
2023-03-31T10:59:39.384Z,22860.00
2023-03-31T11:04:46.704Z,22500.00
2023-03-31T11:09:53.862Z,23688.00
2023-03-31T11:15:01.134Z,20304.00
2023-03-31T11:20:08.449Z,20448.00
2023-03-31T11:25:15.627Z,23076.00
2023-03-31T11:30:22.781Z,23796.00
2023-03-31T11:35:30.071Z,24408.00
2023-03-31T11:40:37.255Z,21852.00
2023-03-31T11:45:44.631Z,21060.00
2023-03-31T11:50:51.839Z,20700.00
2023-03-31T11:55:59.011Z,20124.00
2023-03-31T12:01:06.289Z,24948.00
2023-03-31T12:06:13.526Z,23940.00
2023-03-31T12:11:20.726Z,20592.00
2023-03-31T12:16:28.016Z,20376.00
2023-03-31T12:21:35.261Z,25740.00
2023-03-31T12:26:42.548Z,20160.00
2023-03-31T12:31:49.890Z,22392.00
2023-03-31T12:36:57.031Z,24120.00
2023-03-31T12:42:04.389Z,21132.00
2023-03-31T12:47:11.658Z,24696.00
2023-03-31T12:52:18.954Z,22680.00
2023-03-31T12:57:26.240Z,25164.00
2023-03-31T13:02:33.543Z,23256.00
2023-03-31T13:07:40.801Z,23184.00
2023-03-31T13:12:48.025Z,19512.00
2023-03-31T13:17:55.285Z,18792.00
2023-03-31T13:23:02.452Z,12960.00
2023-03-31T13:28:09.621Z,15408.00
2023-03-31T13:33:18.321Z,19404.00
2023-03-31T13:38:24.171Z,22068.00
2023-03-31T13:43:31.409Z,23472.00
2023-03-31T13:48:38.686Z,23328.00
2023-03-31T13:53:45.916Z,24444.00
2023-03-31T13:58:53.146Z,25776.00
2023-03-31T14:04:00.426Z,20700.00
2023-03-31T14:09:07.669Z,23760.00
2023-03-31T14:14:14.873Z,18072.00
2023-03-31T14:24:29.289Z,20700.00
2023-03-31T14:29:36.480Z,18144.00
2023-03-31T14:34:43.777Z,24192.00
2023-03-31T14:39:50.943Z,24336.00
2023-03-31T14:44:58.122Z,21564.00
2023-03-31T14:50:07.473Z,21456.00
2023-03-31T14:55:12.498Z,22284.00
2023-03-31T15:00:19.665Z,23112.00
2023-03-31T15:05:26.886Z,21924.00
2023-03-31T15:10:34.014Z,17820.00
2023-03-31T15:15:41.250Z,15120.00
2023-03-31T15:20:48.412Z,15192.00
2023-03-31T15:25:55.611Z,16056.00
2023-03-31T15:31:10.101Z,15948.00
2023-03-31T15:36:09.985Z,16416.00
2023-03-31T15:41:17.171Z,14364.00
2023-03-31T15:46:24.352Z,19980.00
2023-03-31T15:51:31.523Z,19620.00
2023-03-31T15:56:38.825Z,18972.00
2023-03-31T16:01:46.113Z,15516.00
2023-03-31T16:06:53.293Z,11304.00
2023-03-31T16:12:00.584Z,11232.00
2023-03-31T16:17:07.907Z,16740.00
2023-03-31T16:22:15.297Z,18324.00
2023-03-31T16:27:22.597Z,11808.00
2023-03-31T16:32:29.820Z,4032.00
2023-03-31T16:37:37.055Z,3132.00
2023-03-31T16:42:44.300Z,5400.00
2023-03-31T16:47:53.113Z,-180.00
2023-03-31T16:52:58.632Z,-72.00
2023-03-31T16:58:05.862Z,-108.00
2023-03-31T17:03:14.313Z,-108.00
2023-03-31T17:08:21.615Z,-108.00
2023-03-31T17:13:28.841Z,-144.00
2023-03-31T17:18:36.253Z,-144.00
2023-03-31T17:23:43.452Z,-216.00
2023-03-31T17:28:50.793Z,-216.00
2023-03-31T17:33:58.307Z,-216.00
2023-03-31T17:39:05.727Z,-252.00
2023-03-31T17:44:13.216Z,-252.00
2023-03-31T17:49:21.147Z,-288.00
2023-03-31T17:54:28.667Z,-288.00
2023-03-31T17:59:37.609Z,-288.00
2023-03-31T18:04:43.598Z,-288.00
2023-03-31T18:09:51.080Z,-324.00
2023-03-31T18:14:58.633Z,-288.00
2023-03-31T18:20:06.011Z,-288.00
2023-03-31T18:25:13.451Z,-288.00
2023-03-31T18:30:20.971Z,-288.00
2023-03-31T18:35:28.324Z,-288.00
2023-03-31T18:40:35.857Z,-288.00
2023-03-31T18:45:43.598Z,-288.00
2023-03-31T18:50:51.135Z,-288.00
2023-03-31T18:55:58.817Z,-288.00
2023-03-31T19:01:06.523Z,-288.00
2023-03-31T19:06:14.047Z,-288.00
2023-03-31T19:11:21.664Z,-288.00
2023-03-31T19:16:29.417Z,-288.00
2023-03-31T19:21:37.092Z,-288.00
2023-03-31T19:26:44.810Z,-288.00
2023-03-31T19:31:52.607Z,-288.00
2023-03-31T19:37:00.447Z,-288.00
2023-03-31T19:42:08.263Z,-288.00
2023-03-31T19:47:16.016Z,-288.00
2023-03-31T19:52:23.394Z,-288.00
2023-03-31T19:57:30.854Z,-288.00
2023-03-31T20:02:38.614Z,-288.00
2023-03-31T20:07:46.052Z,-324.00
2023-03-31T20:12:53.825Z,-288.00
2023-03-31T20:18:01.503Z,-288.00
2023-03-31T20:23:09.177Z,-288.00
2023-03-31T20:28:16.788Z,-288.00
2023-03-31T20:33:24.586Z,-288.00
2023-03-31T20:38:31.948Z,-288.00
2023-03-31T20:43:39.203Z,-288.00
2023-03-31T20:48:46.560Z,-288.00
2023-03-31T20:53:53.787Z,-288.00
2023-03-31T20:59:01.103Z,-288.00
2023-03-31T21:04:08.512Z,-288.00
2023-03-31T21:09:15.629Z,-288.00
2023-03-31T21:14:22.832Z,-288.00
2023-03-31T21:19:30.154Z,-288.00
2023-03-31T21:24:37.414Z,-288.00
2023-03-31T21:29:44.714Z,-288.00
2023-03-31T21:34:52.014Z,-288.00
2023-03-31T21:39:59.284Z,-288.00
2023-03-31T21:45:06.578Z,-324.00
2023-03-31T21:50:13.871Z,-288.00
2023-03-31T21:55:21.139Z,-288.00
2023-03-31T22:00:28.390Z,-288.00
2023-03-31T22:05:35.674Z,-288.00
2023-03-31T22:10:42.906Z,-288.00
2023-03-31T22:15:50.188Z,-288.00
2023-03-31T22:21:39.155Z,-288.00
2023-03-31T22:27:35.140Z,-324.00
2023-03-31T22:32:53.912Z,-252.00
2023-03-31T22:38:36.198Z,-252.00
2023-03-31T22:48:57.020Z,-288.00
2023-03-31T22:54:18.927Z,-288.00
2023-03-31T23:00:33.736Z,-288.00
2023-03-31T23:07:11.096Z,-288.00
2023-03-31T23:12:09.856Z,-288.00
2023-03-31T23:17:24.662Z,-288.00
2023-03-31T23:23:10.389Z,-288.00
2023-03-31T23:28:53.137Z,-252.00
2023-03-31T23:34:14.667Z,-324.00
2023-03-31T23:40:01.889Z,-252.00
2023-03-31T23:45:49.349Z,-288.00
2023-03-31T23:52:21.651Z,-288.00
2023-03-31T23:57:06.047Z,-252.00
